sensor_id;sensor_type;location;lat;lon;timestamp;temperature;humidity
6954;DHT22;3516;47.980;8.808;2023-05-10T05:49:44;12.10;99.90
6954;DHT22;3516;47.980;8.808;2023-05-10T05:52:11;12.10;99.90
6954;DHT22;3516;47.980;8.808;2023-05-10T05:54:38;12.00;99.90
6954;DHT22;3516;47.980;8.808;2023-05-10T05:57:05;12.00;99.90
6954;DHT22;3516;47.980;8.808;2023-05-10T05:59:33;12.00;99.90
6954;DHT22;3516;47.980;8.808;2023-05-10T06:02:00;12.20;99.90
6954;DHT22;3516;47.980;8.808;2023-05-10T06:04:27;12.20;99.90
6954;DHT22;3516;47.980;8.808;2023-05-10T06:06:55;12.20;99.90
6954;DHT22;3516;47.980;8.808;2023-05-10T06:09:22;12.30;99.90
6954;DHT22;3516;47.980;8.808;2023-05-10T06:11:50;12.30;99.90
6954;DHT22;3516;47.980;8.808;2023-05-10T06:14:17;12.40;99.90
6954;DHT22;3516;47.980;8.808;2023-05-10T06:16:46;12.50;99.90
6954;DHT22;3516;47.980;8.808;2023-05-10T06:19:13;12.40;99.90
6954;DHT22;3516;47.980;8.808;2023-05-10T06:21:40;12.40;99.90
6954;DHT22;3516;47.980;8.808;2023-05-10T06:24:08;12.30;99.90
6954;DHT22;3516;47.980;8.808;2023-05-10T06:26:35;12.40;99.90
6954;DHT22;3516;47.980;8.808;2023-05-10T06:29:02;12.50;99.90
6954;DHT22;3516;47.980;8.808;2023-05-10T06:31:28;12.50;99.90
6954;DHT22;3516;47.980;8.808;2023-05-10T06:33:55;12.50;99.90
6954;DHT22;3516;47.980;8.808;2023-05-10T06:36:23;12.60;99.90
6954;DHT22;3516;47.980;8.808;2023-05-10T06:38:51;12.70;99.90
6954;DHT22;3516;47.980;8.808;2023-05-10T06:41:19;12.90;99.90
6954;DHT22;3516;47.980;8.808;2023-05-10T06:43:46;12.90;99.90
6954;DHT22;3516;47.980;8.808;2023-05-10T06:46:13;13.10;99.90
6954;DHT22;3516;47.980;8.808;2023-05-10T06:48:40;13.20;99.90
6954;DHT22;3516;47.980;8.808;2023-05-10T06:51:06;13.30;99.90
6954;DHT22;3516;47.980;8.808;2023-05-10T06:53:33;13.40;99.90
6954;DHT22;3516;47.980;8.808;2023-05-10T06:56:00;13.50;99.90
6954;DHT22;3516;47.980;8.808;2023-05-10T06:58:29;13.50;99.90
6954;DHT22;3516;47.980;8.808;2023-05-10T07:01:01;13.70;99.90
6954;DHT22;3516;47.980;8.808;2023-05-10T07:03:29;13.80;99.90
6954;DHT22;3516;47.980;8.808;2023-05-10T07:06:00;14.00;99.90
6954;DHT22;3516;47.980;8.808;2023-05-10T07:08:28;14.10;99.90
6954;DHT22;3516;47.980;8.808;2023-05-10T07:10:59;14.30;99.90
6954;DHT22;3516;47.980;8.808;2023-05-10T07:13:26;14.50;99.90
6954;DHT22;3516;47.980;8.808;2023-05-10T07:15:54;14.60;99.90
6954;DHT22;3516;47.980;8.808;2023-05-10T07:18:21;14.70;99.90
6954;DHT22;3516;47.980;8.808;2023-05-10T07:20:48;14.70;99.90
6954;DHT22;3516;47.980;8.808;2023-05-10T07:23:14;14.70;99.90
6954;DHT22;3516;47.980;8.808;2023-05-10T07:25:44;14.90;99.90
6954;DHT22;3516;47.980;8.808;2023-05-10T07:28:11;15.00;99.90
6954;DHT22;3516;47.980;8.808;2023-05-10T07:30:38;15.20;99.90
6954;DHT22;3516;47.980;8.808;2023-05-10T07:33:06;15.30;99.90
6954;DHT22;3516;47.980;8.808;2023-05-10T07:35:33;15.20;99.90
6954;DHT22;3516;47.980;8.808;2023-05-10T07:38:00;15.20;99.90
6954;DHT22;3516;47.980;8.808;2023-05-10T07:40:28;15.30;99.90
6954;DHT22;3516;47.980;8.808;2023-05-10T07:42:55;15.20;99.90
6954;DHT22;3516;47.980;8.808;2023-05-10T07:45:22;15.20;99.90
6954;DHT22;3516;47.980;8.808;2023-05-10T07:47:49;15.30;99.90
6954;DHT22;3516;47.980;8.808;2023-05-10T07:50:17;15.40;99.90
6954;DHT22;3516;47.980;8.808;2023-05-10T07:52:44;15.40;99.90
6954;DHT22;3516;47.980;8.808;2023-05-10T07:55:11;15.70;99.90
6954;DHT22;3516;47.980;8.808;2023-05-10T07:57:37;15.80;99.90
6954;DHT22;3516;47.980;8.808;2023-05-10T08:00:05;16.20;99.90
6954;DHT22;3516;47.980;8.808;2023-05-10T08:02:33;16.60;99.90
6954;DHT22;3516;47.980;8.808;2023-05-10T08:05:00;16.90;99.90
6954;DHT22;3516;47.980;8.808;2023-05-10T08:07:28;17.20;99.90
6954;DHT22;3516;47.980;8.808;2023-05-10T08:09:55;17.30;99.90
6954;DHT22;3516;47.980;8.808;2023-05-10T08:12:21;17.60;99.90
6954;DHT22;3516;47.980;8.808;2023-05-10T08:14:48;17.80;99.90
6954;DHT22;3516;47.980;8.808;2023-05-10T08:17:17;18.00;99.90
6954;DHT22;3516;47.980;8.808;2023-05-10T08:19:43;18.00;99.90
6954;DHT22;3516;47.980;8.808;2023-05-10T08:22:10;17.60;99.90
6954;DHT22;3516;47.980;8.808;2023-05-10T08:24:38;17.40;99.90
6954;DHT22;3516;47.980;8.808;2023-05-10T08:27:07;17.20;99.90
6954;DHT22;3516;47.980;8.808;2023-05-10T08:29:34;16.60;99.90
6954;DHT22;3516;47.980;8.808;2023-05-10T08:32:04;16.10;99.90
6954;DHT22;3516;47.980;8.808;2023-05-10T08:34:32;15.40;99.90
6954;DHT22;3516;47.980;8.808;2023-05-10T08:36:58;14.70;99.90
6954;DHT22;3516;47.980;8.808;2023-05-10T08:39:25;14.10;99.90
6954;DHT22;3516;47.980;8.808;2023-05-10T08:41:54;13.60;99.90
6954;DHT22;3516;47.980;8.808;2023-05-10T08:44:24;13.00;99.90
6954;DHT22;3516;47.980;8.808;2023-05-10T08:46:53;12.70;99.90
6954;DHT22;3516;47.980;8.808;2023-05-10T08:49:21;12.50;99.90
6954;DHT22;3516;47.980;8.808;2023-05-10T08:51:52;12.30;99.90
6954;DHT22;3516;47.980;8.808;2023-05-10T08:54:21;12.60;99.90
6954;DHT22;3516;47.980;8.808;2023-05-10T08:56:48;12.20;99.90
6954;DHT22;3516;47.980;8.808;2023-05-10T08:59:16;12.10;99.90
6954;DHT22;3516;47.980;8.808;2023-05-10T09:01:44;12.00;99.90
6954;DHT22;3516;47.980;8.808;2023-05-10T09:04:13;12.00;99.90
6954;DHT22;3516;47.980;8.808;2023-05-10T09:06:40;12.10;99.90
6954;DHT22;3516;47.980;8.808;2023-05-10T09:09:07;12.30;99.90
6954;DHT22;3516;47.980;8.808;2023-05-10T09:11:34;12.40;99.90
6954;DHT22;3516;47.980;8.808;2023-05-10T09:14:01;12.60;99.90
6954;DHT22;3516;47.980;8.808;2023-05-10T09:16:30;12.70;99.90
6954;DHT22;3516;47.980;8.808;2023-05-10T09:18:58;12.70;99.90
6954;DHT22;3516;47.980;8.808;2023-05-10T09:21:25;12.90;99.90
6954;DHT22;3516;47.980;8.808;2023-05-10T09:23:52;13.10;99.90
6954;DHT22;3516;47.980;8.808;2023-05-10T09:26:22;13.30;99.90
6954;DHT22;3516;47.980;8.808;2023-05-10T09:28:53;13.40;99.90
6954;DHT22;3516;47.980;8.808;2023-05-10T09:31:19;13.60;99.90
6954;DHT22;3516;47.980;8.808;2023-05-10T09:33:49;13.90;99.90
6954;DHT22;3516;47.980;8.808;2023-05-10T09:36:17;14.10;99.90
6954;DHT22;3516;47.980;8.808;2023-05-10T09:38:47;14.30;99.90
6954;DHT22;3516;47.980;8.808;2023-05-10T09:41:18;14.40;99.90
6954;DHT22;3516;47.980;8.808;2023-05-10T09:43:46;14.60;99.90
6954;DHT22;3516;47.980;8.808;2023-05-10T09:46:13;14.80;99.90
6954;DHT22;3516;47.980;8.808;2023-05-10T09:48:42;15.00;99.90
6954;DHT22;3516;47.980;8.808;2023-05-10T09:51:18;15.60;99.90
6954;DHT22;3516;47.980;8.808;2023-05-10T09:53:45;15.00;99.90
6954;DHT22;3516;47.980;8.808;2023-05-10T09:56:12;15.20;99.90
6954;DHT22;3516;47.980;8.808;2023-05-10T09:58:40;15.30;99.90
6954;DHT22;3516;47.980;8.808;2023-05-10T10:31:11;15.70;99.90
6954;DHT22;3516;47.980;8.808;2023-05-10T10:33:51;15.80;99.90
6954;DHT22;3516;47.980;8.808;2023-05-10T13:05:42;17.00;95.40
6954;DHT22;3516;47.980;8.808;2023-05-10T13:08:10;17.20;86.30
6954;DHT22;3516;47.980;8.808;2023-05-10T13:10:37;17.30;76.20
6954;DHT22;3516;47.980;8.808;2023-05-10T13:13:04;17.40;74.60
6954;DHT22;3516;47.980;8.808;2023-05-10T13:15:30;17.60;66.30
6954;DHT22;3516;47.980;8.808;2023-05-10T13:17:57;17.60;59.10
6954;DHT22;3516;47.980;8.808;2023-05-10T13:20:24;17.80;60.90
6954;DHT22;3516;47.980;8.808;2023-05-10T13:22:51;17.80;59.60
6954;DHT22;3516;47.980;8.808;2023-05-10T13:25:19;18.00;64.70
6954;DHT22;3516;47.980;8.808;2023-05-10T13:27:46;17.80;65.40
6954;DHT22;3516;47.980;8.808;2023-05-10T13:30:13;17.90;61.10
6954;DHT22;3516;47.980;8.808;2023-05-10T13:32:40;18.00;58.60
6954;DHT22;3516;47.980;8.808;2023-05-10T13:35:07;18.10;57.10
6954;DHT22;3516;47.980;8.808;2023-05-10T13:37:34;16.90;60.20
6954;DHT22;3516;47.980;8.808;2023-05-10T13:40:03;18.30;64.60
6954;DHT22;3516;47.980;8.808;2023-05-10T13:42:31;18.30;61.30
6954;DHT22;3516;47.980;8.808;2023-05-10T13:44:59;18.40;59.70
6954;DHT22;3516;47.980;8.808;2023-05-10T13:47:26;18.50;54.70
6954;DHT22;3516;47.980;8.808;2023-05-10T13:49:53;18.40;52.40
6954;DHT22;3516;47.980;8.808;2023-05-10T13:52:19;18.20;49.50
6954;DHT22;3516;47.980;8.808;2023-05-10T13:54:46;18.00;52.80
6954;DHT22;3516;47.980;8.808;2023-05-10T13:57:13;17.90;50.50
6954;DHT22;3516;47.980;8.808;2023-05-10T13:59:43;17.80;52.00
6954;DHT22;3516;47.980;8.808;2023-05-10T14:02:10;17.60;53.30
6954;DHT22;3516;47.980;8.808;2023-05-10T14:04:38;17.60;55.70
6954;DHT22;3516;47.980;8.808;2023-05-10T14:07:05;17.70;57.90
6954;DHT22;3516;47.980;8.808;2023-05-10T14:09:31;17.80;59.00
6954;DHT22;3516;47.980;8.808;2023-05-10T14:11:58;17.90;58.80
6954;DHT22;3516;47.980;8.808;2023-05-10T14:14:25;17.60;54.80
6954;DHT22;3516;47.980;8.808;2023-05-10T14:16:53;17.50;55.60
6954;DHT22;3516;47.980;8.808;2023-05-10T14:19:19;17.30;55.70
6954;DHT22;3516;47.980;8.808;2023-05-10T14:21:46;17.10;57.90
6954;DHT22;3516;47.980;8.808;2023-05-10T14:24:13;17.00;60.20
6954;DHT22;3516;47.980;8.808;2023-05-10T14:26:40;17.00;62.90
6954;DHT22;3516;47.980;8.808;2023-05-10T14:29:07;17.00;59.60
6954;DHT22;3516;47.980;8.808;2023-05-10T14:31:33;17.00;58.90
6954;DHT22;3516;47.980;8.808;2023-05-10T14:34:01;17.00;61.30
6954;DHT22;3516;47.980;8.808;2023-05-10T14:36:28;17.00;58.90
6954;DHT22;3516;47.980;8.808;2023-05-10T14:38:55;16.90;59.20
6954;DHT22;3516;47.980;8.808;2023-05-10T14:41:22;16.80;64.50
6954;DHT22;3516;47.980;8.808;2023-05-10T14:43:50;16.70;68.30
6954;DHT22;3516;47.980;8.808;2023-05-10T14:46:16;16.40;67.10
6954;DHT22;3516;47.980;8.808;2023-05-10T14:48:43;16.10;72.10
6954;DHT22;3516;47.980;8.808;2023-05-10T14:51:11;15.70;90.80
6954;DHT22;3516;47.980;8.808;2023-05-10T14:53:38;15.30;99.90
6954;DHT22;3516;47.980;8.808;2023-05-10T14:56:05;14.90;99.90
6954;DHT22;3516;47.980;8.808;2023-05-10T14:58:32;14.60;99.90
6954;DHT22;3516;47.980;8.808;2023-05-10T15:00:59;14.30;99.90
6954;DHT22;3516;47.980;8.808;2023-05-10T15:03:26;14.00;99.90
6954;DHT22;3516;47.980;8.808;2023-05-10T15:05:52;13.80;99.90
6954;DHT22;3516;47.980;8.808;2023-05-10T15:08:22;13.70;99.90
6954;DHT22;3516;47.980;8.808;2023-05-10T15:10:50;13.50;99.90
6954;DHT22;3516;47.980;8.808;2023-05-10T15:13:16;13.40;99.90
6954;DHT22;3516;47.980;8.808;2023-05-10T15:15:43;13.30;99.90
6954;DHT22;3516;47.980;8.808;2023-05-10T15:18:10;13.20;99.90
6954;DHT22;3516;47.980;8.808;2023-05-10T15:20:36;13.20;99.90
6954;DHT22;3516;47.980;8.808;2023-05-10T15:23:03;13.20;99.90
6954;DHT22;3516;47.980;8.808;2023-05-10T15:25:31;13.20;99.90
6954;DHT22;3516;47.980;8.808;2023-05-10T15:28:00;13.30;99.90
6954;DHT22;3516;47.980;8.808;2023-05-10T15:30:27;13.40;99.90
6954;DHT22;3516;47.980;8.808;2023-05-10T15:32:54;13.50;99.90
6954;DHT22;3516;47.980;8.808;2023-05-10T16:03:51;14.40;99.90
6954;DHT22;3516;47.980;8.808;2023-05-10T16:06:17;14.30;99.90
6954;DHT22;3516;47.980;8.808;2023-05-10T16:08:44;14.20;99.90
6954;DHT22;3516;47.980;8.808;2023-05-10T16:11:11;14.20;99.90
6954;DHT22;3516;47.980;8.808;2023-05-10T16:13:37;14.10;99.90
6954;DHT22;3516;47.980;8.808;2023-05-10T16:16:04;14.10;99.90
6954;DHT22;3516;47.980;8.808;2023-05-10T16:18:33;14.00;99.90
6954;DHT22;3516;47.980;8.808;2023-05-10T16:21:01;13.90;99.90
6954;DHT22;3516;47.980;8.808;2023-05-10T16:23:28;13.80;99.90
6954;DHT22;3516;47.980;8.808;2023-05-10T16:25:55;13.70;99.90
6954;DHT22;3516;47.980;8.808;2023-05-10T16:28:21;13.70;99.90
6954;DHT22;3516;47.980;8.808;2023-05-10T16:30:48;13.60;99.90
6954;DHT22;3516;47.980;8.808;2023-05-10T16:33:15;13.60;99.90
6954;DHT22;3516;47.980;8.808;2023-05-10T16:35:42;13.60;99.90
6954;DHT22;3516;47.980;8.808;2023-05-10T16:38:10;13.60;99.90
6954;DHT22;3516;47.980;8.808;2023-05-10T16:40:37;13.60;99.90
6954;DHT22;3516;47.980;8.808;2023-05-10T16:43:04;13.60;99.90
6954;DHT22;3516;47.980;8.808;2023-05-10T16:45:30;13.70;99.90
6954;DHT22;3516;47.980;8.808;2023-05-10T16:47:57;13.70;99.90
6954;DHT22;3516;47.980;8.808;2023-05-10T16:50:24;13.80;99.90
6954;DHT22;3516;47.980;8.808;2023-05-10T16:52:51;13.90;99.90
6954;DHT22;3516;47.980;8.808;2023-05-10T16:55:19;13.90;99.90
6954;DHT22;3516;47.980;8.808;2023-05-10T16:57:45;14.00;99.90
6954;DHT22;3516;47.980;8.808;2023-05-10T17:00:13;14.00;99.90
6954;DHT22;3516;47.980;8.808;2023-05-10T17:02:40;14.00;99.90
6954;DHT22;3516;47.980;8.808;2023-05-10T17:05:07;14.00;99.90
6954;DHT22;3516;47.980;8.808;2023-05-10T17:07:34;13.90;99.90
6954;DHT22;3516;47.980;8.808;2023-05-10T17:10:01;13.90;99.90
6954;DHT22;3516;47.980;8.808;2023-05-10T17:12:29;13.80;99.90
6954;DHT22;3516;47.980;8.808;2023-05-10T17:14:55;13.80;99.90
6954;DHT22;3516;47.980;8.808;2023-05-10T17:17:23;13.70;99.90
6954;DHT22;3516;47.980;8.808;2023-05-10T17:19:50;13.60;99.90
6954;DHT22;3516;47.980;8.808;2023-05-10T17:22:16;13.50;99.90
6954;DHT22;3516;47.980;8.808;2023-05-10T17:24:44;13.40;99.90
6954;DHT22;3516;47.980;8.808;2023-05-10T17:27:11;13.40;99.90
6954;DHT22;3516;47.980;8.808;2023-05-10T17:29:39;13.30;99.90
6954;DHT22;3516;47.980;8.808;2023-05-10T17:32:05;13.30;99.90
6954;DHT22;3516;47.980;8.808;2023-05-10T17:34:33;13.20;99.90
6954;DHT22;3516;47.980;8.808;2023-05-10T17:37:00;13.10;99.90
6954;DHT22;3516;47.980;8.808;2023-05-10T17:39:27;13.10;99.90
6954;DHT22;3516;47.980;8.808;2023-05-10T17:41:53;13.00;99.90
6954;DHT22;3516;47.980;8.808;2023-05-10T17:44:20;12.90;99.90
6954;DHT22;3516;47.980;8.808;2023-05-10T17:46:48;12.80;99.90
6954;DHT22;3516;47.980;8.808;2023-05-10T17:49:15;12.70;99.90
6954;DHT22;3516;47.980;8.808;2023-05-10T17:51:41;12.50;99.90
6954;DHT22;3516;47.980;8.808;2023-05-10T17:54:09;12.40;99.90
6954;DHT22;3516;47.980;8.808;2023-05-10T17:56:35;12.30;99.90
6954;DHT22;3516;47.980;8.808;2023-05-10T17:59:02;12.20;99.90
6954;DHT22;3516;47.980;8.808;2023-05-10T18:01:29;12.20;99.90
6954;DHT22;3516;47.980;8.808;2023-05-10T18:03:57;12.10;99.90
6954;DHT22;3516;47.980;8.808;2023-05-10T18:06:23;12.00;99.90
6954;DHT22;3516;47.980;8.808;2023-05-10T18:08:50;11.90;99.90
6954;DHT22;3516;47.980;8.808;2023-05-10T18:11:17;11.80;99.90
6954;DHT22;3516;47.980;8.808;2023-05-10T18:13:43;11.70;99.90
6954;DHT22;3516;47.980;8.808;2023-05-10T18:16:11;11.70;99.90
6954;DHT22;3516;47.980;8.808;2023-05-10T18:18:38;11.60;99.90
6954;DHT22;3516;47.980;8.808;2023-05-10T18:21:06;11.50;99.90
6954;DHT22;3516;47.980;8.808;2023-05-10T18:23:32;11.50;99.90
6954;DHT22;3516;47.980;8.808;2023-05-10T18:25:59;11.40;99.90
6954;DHT22;3516;47.980;8.808;2023-05-10T18:28:27;11.40;99.90
6954;DHT22;3516;47.980;8.808;2023-05-10T18:30:53;11.30;99.90
6954;DHT22;3516;47.980;8.808;2023-05-10T18:33:20;11.30;99.90
6954;DHT22;3516;47.980;8.808;2023-05-10T18:35:47;11.20;99.90
6954;DHT22;3516;47.980;8.808;2023-05-10T18:38:15;11.10;99.90
6954;DHT22;3516;47.980;8.808;2023-05-10T18:40:41;11.00;99.90
6954;DHT22;3516;47.980;8.808;2023-05-10T18:43:08;11.00;99.90
6954;DHT22;3516;47.980;8.808;2023-05-10T18:45:35;11.00;99.90
6954;DHT22;3516;47.980;8.808;2023-05-10T18:48:03;10.90;99.90
6954;DHT22;3516;47.980;8.808;2023-05-10T18:50:31;10.90;99.90
6954;DHT22;3516;47.980;8.808;2023-05-10T18:52:57;10.90;99.90
6954;DHT22;3516;47.980;8.808;2023-05-10T18:55:25;10.80;99.90
6954;DHT22;3516;47.980;8.808;2023-05-10T18:57:52;10.80;99.90
6954;DHT22;3516;47.980;8.808;2023-05-10T19:00:19;10.70;99.90
6954;DHT22;3516;47.980;8.808;2023-05-10T19:02:46;10.70;99.90
6954;DHT22;3516;47.980;8.808;2023-05-10T19:05:14;10.70;99.90
6954;DHT22;3516;47.980;8.808;2023-05-10T19:07:41;10.60;99.90
6954;DHT22;3516;47.980;8.808;2023-05-10T19:10:09;10.60;99.90
6954;DHT22;3516;47.980;8.808;2023-05-10T19:12:38;10.50;99.90
6954;DHT22;3516;47.980;8.808;2023-05-10T19:15:07;10.50;99.90
6954;DHT22;3516;47.980;8.808;2023-05-10T19:17:35;10.40;99.90
6954;DHT22;3516;47.980;8.808;2023-05-10T19:20:03;10.40;99.90
6954;DHT22;3516;47.980;8.808;2023-05-10T19:22:29;10.30;99.90
6954;DHT22;3516;47.980;8.808;2023-05-10T19:24:56;10.30;99.90
6954;DHT22;3516;47.980;8.808;2023-05-10T19:27:23;10.20;99.90
6954;DHT22;3516;47.980;8.808;2023-05-10T19:29:51;10.20;99.90
6954;DHT22;3516;47.980;8.808;2023-05-10T19:32:18;10.10;99.90
6954;DHT22;3516;47.980;8.808;2023-05-10T19:34:44;10.10;99.90
6954;DHT22;3516;47.980;8.808;2023-05-10T19:37:11;10.10;99.90
6954;DHT22;3516;47.980;8.808;2023-05-10T19:39:38;10.00;99.90
6954;DHT22;3516;47.980;8.808;2023-05-10T19:42:04;10.00;99.90
6954;DHT22;3516;47.980;8.808;2023-05-10T19:44:31;9.90;99.90
6954;DHT22;3516;47.980;8.808;2023-05-10T19:46:59;9.90;99.90
6954;DHT22;3516;47.980;8.808;2023-05-10T19:49:28;9.80;99.90
6954;DHT22;3516;47.980;8.808;2023-05-10T19:51:55;9.80;99.90
6954;DHT22;3516;47.980;8.808;2023-05-10T19:54:22;9.80;99.90
6954;DHT22;3516;47.980;8.808;2023-05-10T19:56:48;9.80;99.90
6954;DHT22;3516;47.980;8.808;2023-05-10T19:59:15;9.70;99.90
6954;DHT22;3516;47.980;8.808;2023-05-10T20:01:42;9.70;99.90
6954;DHT22;3516;47.980;8.808;2023-05-10T20:04:10;9.80;99.90
6954;DHT22;3516;47.980;8.808;2023-05-10T20:06:37;9.80;99.90
6954;DHT22;3516;47.980;8.808;2023-05-10T20:09:03;9.80;99.90
6954;DHT22;3516;47.980;8.808;2023-05-10T20:11:30;9.80;99.90
6954;DHT22;3516;47.980;8.808;2023-05-10T20:13:57;9.90;99.90
6954;DHT22;3516;47.980;8.808;2023-05-10T20:16:23;9.90;99.90
6954;DHT22;3516;47.980;8.808;2023-05-10T20:18:50;9.90;99.90
6954;DHT22;3516;47.980;8.808;2023-05-10T20:21:18;9.90;99.90
6954;DHT22;3516;47.980;8.808;2023-05-10T20:23:46;9.90;99.90
6954;DHT22;3516;47.980;8.808;2023-05-10T20:26:13;9.90;99.90
6954;DHT22;3516;47.980;8.808;2023-05-10T20:28:40;9.90;99.90
6954;DHT22;3516;47.980;8.808;2023-05-10T20:31:07;9.80;99.90
6954;DHT22;3516;47.980;8.808;2023-05-10T20:33:34;9.80;99.90
6954;DHT22;3516;47.980;8.808;2023-05-10T20:36:01;9.80;99.90
6954;DHT22;3516;47.980;8.808;2023-05-10T20:38:29;9.70;99.90
6954;DHT22;3516;47.980;8.808;2023-05-10T20:40:55;9.70;99.90
6954;DHT22;3516;47.980;8.808;2023-05-10T20:43:22;9.70;99.90
6954;DHT22;3516;47.980;8.808;2023-05-10T20:45:49;9.60;99.90
6954;DHT22;3516;47.980;8.808;2023-05-10T20:48:16;9.60;99.90
6954;DHT22;3516;47.980;8.808;2023-05-10T20:50:43;9.60;99.90
6954;DHT22;3516;47.980;8.808;2023-05-10T20:53:11;9.50;99.90
6954;DHT22;3516;47.980;8.808;2023-05-10T20:55:40;9.50;99.90
6954;DHT22;3516;47.980;8.808;2023-05-10T20:58:06;9.50;99.90
6954;DHT22;3516;47.980;8.808;2023-05-10T21:00:33;9.40;99.90
6954;DHT22;3516;47.980;8.808;2023-05-10T21:03:00;9.40;99.90
6954;DHT22;3516;47.980;8.808;2023-05-10T21:05:27;9.40;99.90
6954;DHT22;3516;47.980;8.808;2023-05-10T21:07:53;9.30;99.90
6954;DHT22;3516;47.980;8.808;2023-05-10T21:10:20;9.30;99.90
6954;DHT22;3516;47.980;8.808;2023-05-10T21:12:48;9.20;99.90
6954;DHT22;3516;47.980;8.808;2023-05-10T21:15:15;9.20;99.90
6954;DHT22;3516;47.980;8.808;2023-05-10T21:17:43;9.20;99.90
6954;DHT22;3516;47.980;8.808;2023-05-10T21:20:11;9.10;99.90
6954;DHT22;3516;47.980;8.808;2023-05-10T21:22:38;9.10;99.90
6954;DHT22;3516;47.980;8.808;2023-05-10T21:25:05;9.10;99.90
6954;DHT22;3516;47.980;8.808;2023-05-10T21:27:32;9.00;99.90
6954;DHT22;3516;47.980;8.808;2023-05-10T21:30:01;9.00;99.90
6954;DHT22;3516;47.980;8.808;2023-05-10T21:32:27;9.00;99.90
6954;DHT22;3516;47.980;8.808;2023-05-10T21:34:54;9.00;99.90
6954;DHT22;3516;47.980;8.808;2023-05-10T21:37:21;8.90;99.90
6954;DHT22;3516;47.980;8.808;2023-05-10T21:39:47;8.90;99.90
6954;DHT22;3516;47.980;8.808;2023-05-10T21:42:14;8.90;99.90
6954;DHT22;3516;47.980;8.808;2023-05-10T21:44:41;8.80;99.90
